createdAt,value
2018-10-11T00:00:07.932Z,18.07
2018-10-11T00:02:42.620Z,18.12
2018-10-11T00:05:17.297Z,18.09
2018-10-11T00:07:51.904Z,18.00
2018-10-11T00:10:27.104Z,17.95
2018-10-11T00:13:01.660Z,17.97
2018-10-11T00:15:36.388Z,18.00
2018-10-11T00:18:11.071Z,18.00
2018-10-11T00:20:45.827Z,17.94
2018-10-11T00:23:20.588Z,17.98
2018-10-11T00:25:55.534Z,17.95
2018-10-11T00:28:42.655Z,17.83
2018-10-11T00:31:20.675Z,17.83
2018-10-11T00:33:55.436Z,17.77
2018-10-11T00:36:29.856Z,17.77
2018-10-11T00:39:05.606Z,17.72
2018-10-11T00:41:40.042Z,17.55
2018-10-11T00:44:16.256Z,17.62
2018-10-11T00:46:50.984Z,17.56
2018-10-11T00:49:25.777Z,17.57
2018-10-11T00:52:00.596Z,17.53
2018-10-11T00:54:35.744Z,17.46
2018-10-11T00:57:10.376Z,17.40
2018-10-11T00:59:44.904Z,17.64
2018-10-11T01:02:19.440Z,17.71
2018-10-11T01:04:53.989Z,17.75
2018-10-11T01:07:28.559Z,17.73
2018-10-11T01:10:03.211Z,17.71
2018-10-11T01:12:37.773Z,17.66
2018-10-11T01:15:12.798Z,17.68
2018-10-11T01:17:47.409Z,17.63
2018-10-11T01:20:22.098Z,17.56
2018-10-11T01:22:56.975Z,17.71
2018-10-11T01:25:31.459Z,17.69
2018-10-11T01:28:06.038Z,17.80
2018-10-11T01:31:43.799Z,17.68
2018-10-11T01:34:18.280Z,17.63
2018-10-11T01:36:52.929Z,17.50
2018-10-11T01:39:35.614Z,17.55
2018-10-11T01:42:10.579Z,17.47
2018-10-11T01:44:45.211Z,17.47
2018-10-11T01:47:19.954Z,17.47
2018-10-11T01:49:55.149Z,17.34
2018-10-11T01:52:30.096Z,17.35
2018-10-11T01:55:04.469Z,17.44
2018-10-11T01:57:39.011Z,17.52
2018-10-11T02:00:13.578Z,17.55
2018-10-11T02:02:48.053Z,17.49
2018-10-11T02:05:22.780Z,17.36
2018-10-11T02:07:58.304Z,17.62
2018-10-11T02:10:33.008Z,17.75
2018-10-11T02:13:07.783Z,17.82
2018-10-11T02:15:42.536Z,17.55
2018-10-11T02:18:17.290Z,17.66
2018-10-11T02:20:51.958Z,17.54
2018-10-11T02:23:27.055Z,17.51
2018-10-11T02:26:01.773Z,17.60
2018-10-11T02:28:36.293Z,17.68
2018-10-11T02:31:10.866Z,17.53
2018-10-11T02:33:45.429Z,17.53
2018-10-11T02:36:20.058Z,17.59
2018-10-11T02:38:54.620Z,17.62
2018-10-11T02:41:29.170Z,17.75
2018-10-11T02:44:03.813Z,17.65
2018-10-11T02:46:58.786Z,17.59
2018-10-11T02:49:51.543Z,17.52
2018-10-11T02:52:45.497Z,17.54
2018-10-11T02:55:22.647Z,17.52
2018-10-11T02:58:08.872Z,17.41
2018-10-11T03:00:43.489Z,17.46
2018-10-11T03:03:21.292Z,17.37
2018-10-11T03:06:00.090Z,17.36
2018-10-11T03:11:52.215Z,17.38
2018-10-11T03:14:27.241Z,17.20
2018-10-11T03:17:01.866Z,17.21
2018-10-11T03:19:36.509Z,17.10
2018-10-11T03:22:11.502Z,17.14
2018-10-11T03:24:46.296Z,16.91
2018-10-11T03:27:21.149Z,16.76
2018-10-11T03:29:55.688Z,16.85
2018-10-11T03:32:30.300Z,16.80
2018-10-11T03:35:05.031Z,16.78
2018-10-11T03:37:39.567Z,16.76
2018-10-11T03:40:14.003Z,16.71
2018-10-11T03:42:48.697Z,16.74
2018-10-11T03:45:23.228Z,16.74
2018-10-11T03:47:57.776Z,16.74
2018-10-11T03:50:32.402Z,16.82
2018-10-11T03:53:06.953Z,16.64
2018-10-11T03:55:41.533Z,16.71
2018-10-11T03:58:19.417Z,16.64
2018-10-11T04:00:57.273Z,16.73
2018-10-11T04:03:31.822Z,16.67
2018-10-11T04:06:06.567Z,16.66
2018-10-11T04:08:41.521Z,16.69
2018-10-11T04:11:16.192Z,16.65
2018-10-11T04:13:51.242Z,16.57
2018-10-11T04:16:25.931Z,16.58
2018-10-11T04:19:10.808Z,16.56
2018-10-11T04:21:49.130Z,16.56
2018-10-11T04:24:35.524Z,16.46
2018-10-11T04:27:10.313Z,16.67
2018-10-11T04:29:44.968Z,16.71
2018-10-11T04:32:19.405Z,16.57
2018-10-11T04:34:54.156Z,16.44
2018-10-11T04:37:28.740Z,16.38
2018-10-11T04:40:03.551Z,16.25
2018-10-11T04:42:38.207Z,16.26
2018-10-11T04:45:12.850Z,16.21
2018-10-11T04:47:47.389Z,16.13
2018-10-11T04:50:21.995Z,16.19
2018-10-11T04:52:57.214Z,16.12
2018-10-11T04:55:31.790Z,16.14
2018-10-11T04:58:06.442Z,16.02
2018-10-11T05:00:41.433Z,15.93
2018-10-11T05:03:15.730Z,16.38
2018-10-11T05:05:50.353Z,16.15
2018-10-11T05:08:24.838Z,16.17
2018-10-11T05:10:59.260Z,16.53
2018-10-11T05:13:37.642Z,16.42
2018-10-11T05:16:12.810Z,16.37
2018-10-11T05:18:50.795Z,16.40
2018-10-11T05:21:25.478Z,16.40
2018-10-11T05:24:00.162Z,16.19
2018-10-11T05:26:34.725Z,16.13
2018-10-11T05:29:09.272Z,16.09
2018-10-11T05:31:44.195Z,16.25
2018-10-11T05:34:18.726Z,16.17
2018-10-11T05:36:53.359Z,16.19
2018-10-11T05:39:27.941Z,16.25
2018-10-11T05:42:02.439Z,16.34
2018-10-11T05:44:36.990Z,16.27
2018-10-11T05:47:11.536Z,16.27
2018-10-11T05:49:46.359Z,16.15
2018-10-11T05:52:20.948Z,16.19
2018-10-11T05:54:55.458Z,16.43
2018-10-11T05:57:29.995Z,16.23
2018-10-11T06:00:04.683Z,16.20
2018-10-11T06:02:50.516Z,16.24
2018-10-11T06:05:25.454Z,16.24
2018-10-11T06:08:01.293Z,16.40
2018-10-11T06:10:38.782Z,16.48
2018-10-11T06:13:13.907Z,16.32
2018-10-11T06:15:48.553Z,16.26
2018-10-11T06:18:23.150Z,16.27
2018-10-11T06:20:57.639Z,16.27
2018-10-11T06:23:32.181Z,16.27
2018-10-11T06:26:06.779Z,16.31
2018-10-11T06:28:53.706Z,16.27
2018-10-11T06:31:28.320Z,16.32
2018-10-11T06:34:02.885Z,16.27
2018-10-11T06:36:37.483Z,16.23
2018-10-11T06:39:12.584Z,16.37
2018-10-11T06:41:47.249Z,16.40
2018-10-11T06:44:21.935Z,16.48
2018-10-11T06:46:56.645Z,16.50
2018-10-11T06:49:31.237Z,16.57
2018-10-11T06:52:06.308Z,16.61
2018-10-11T06:54:41.139Z,16.72
2018-10-11T06:57:15.572Z,16.73
2018-10-11T06:59:50.091Z,16.85
2018-10-11T07:02:24.362Z,17.00
2018-10-11T07:04:58.662Z,17.04
2018-10-11T07:07:32.932Z,17.35
2018-10-11T07:10:07.217Z,18.36
2018-10-11T07:12:41.792Z,19.82
2018-10-11T07:15:16.153Z,22.38
2018-10-11T07:17:51.024Z,23.12
2018-10-11T07:20:25.294Z,23.52
2018-10-11T07:22:59.643Z,23.26
2018-10-11T07:25:34.228Z,22.23
2018-10-11T07:28:08.696Z,21.29
2018-10-11T07:30:43.289Z,21.06
2018-10-11T07:33:17.940Z,21.13
2018-10-11T07:35:52.423Z,20.86
2018-10-11T07:38:26.784Z,20.75
2018-10-11T07:41:01.540Z,20.72
2018-10-11T07:43:36.041Z,20.68
2018-10-11T07:46:10.622Z,20.48
2018-10-11T07:48:45.339Z,20.01
2018-10-11T07:51:19.996Z,20.05
2018-10-11T07:53:58.481Z,19.64
2018-10-11T07:56:33.701Z,19.20
2018-10-11T07:59:08.348Z,19.29
2018-10-11T08:01:43.511Z,19.14
2018-10-11T08:04:17.960Z,19.37
2018-10-11T08:06:52.527Z,19.52
2018-10-11T08:09:27.038Z,19.50
2018-10-11T08:12:02.230Z,19.61
2018-10-11T08:14:36.669Z,19.56
2018-10-11T08:17:11.502Z,19.77
2018-10-11T08:19:45.603Z,19.85
2018-10-11T08:22:19.916Z,19.98
2018-10-11T08:24:54.494Z,20.01
2018-10-11T08:27:29.013Z,20.07
2018-10-11T08:30:04.039Z,19.85
2018-10-11T08:32:38.624Z,20.15
2018-10-11T08:35:13.187Z,20.12
2018-10-11T08:37:48.082Z,20.22
2018-10-11T08:40:22.632Z,20.10
2018-10-11T08:42:57.145Z,19.91
2018-10-11T08:45:32.001Z,20.16
2018-10-11T08:48:17.790Z,20.22
2018-10-11T08:50:52.876Z,20.26
2018-10-11T08:53:27.409Z,20.09
2018-10-11T08:56:02.174Z,20.21
2018-10-11T08:58:36.847Z,20.45
2018-10-11T09:01:11.407Z,20.52
2018-10-11T09:03:46.170Z,20.64
2018-10-11T09:06:20.563Z,20.85
2018-10-11T09:08:55.101Z,20.76
2018-10-11T09:11:30.045Z,21.07
2018-10-11T09:14:04.522Z,21.57
2018-10-11T09:16:38.945Z,21.89
2018-10-11T09:19:13.781Z,21.96
2018-10-11T09:21:48.393Z,21.94
2018-10-11T09:24:22.979Z,22.01
2018-10-11T09:26:57.606Z,21.68
2018-10-11T09:29:32.299Z,21.57
2018-10-11T09:32:06.773Z,21.85
2018-10-11T09:34:41.255Z,21.74
2018-10-11T09:37:15.924Z,21.52
2018-10-11T09:39:50.815Z,21.74
2018-10-11T09:42:25.250Z,21.68
2018-10-11T09:44:59.742Z,21.85
2018-10-11T09:47:34.489Z,21.77
2018-10-11T09:50:08.921Z,22.11
2018-10-11T09:52:43.855Z,22.21
2018-10-11T09:55:18.479Z,22.15
2018-10-11T09:57:53.045Z,22.19
2018-10-11T10:00:38.990Z,22.17
2018-10-11T10:03:13.602Z,22.29
2018-10-11T10:05:48.109Z,22.50
2018-10-11T10:08:22.528Z,22.45
2018-10-11T10:10:57.243Z,22.61
2018-10-11T10:13:31.804Z,22.64
2018-10-11T10:16:06.337Z,22.89
2018-10-11T10:18:40.960Z,23.13
2018-10-11T10:21:16.521Z,22.99
2018-10-11T10:23:50.995Z,23.42
2018-10-11T10:26:25.631Z,23.41
2018-10-11T10:29:00.185Z,23.59
2018-10-11T10:31:35.122Z,23.30
2018-10-11T10:34:09.813Z,23.47
2018-10-11T10:36:44.511Z,23.24
2018-10-11T10:39:19.022Z,23.33
2018-10-11T10:41:53.648Z,23.11
2018-10-11T10:44:28.637Z,23.15
2018-10-11T10:47:03.367Z,23.63
2018-10-11T10:49:39.190Z,23.83
2018-10-11T10:52:13.776Z,23.75
2018-10-11T10:54:48.382Z,23.72
2018-10-11T10:57:22.960Z,23.81
2018-10-11T10:59:57.663Z,23.70
2018-10-11T11:02:32.461Z,23.65
2018-10-11T11:05:06.902Z,23.48
2018-10-11T11:07:41.530Z,23.54
2018-10-11T11:10:16.183Z,23.47
2018-10-11T11:12:50.834Z,23.57
2018-10-11T11:15:25.329Z,23.57
2018-10-11T11:18:00.031Z,23.64
2018-10-11T11:20:34.849Z,23.45
2018-10-11T11:23:09.440Z,23.55
2018-10-11T11:25:43.986Z,23.50
2018-10-11T11:28:18.644Z,23.55
2018-10-11T11:30:53.175Z,23.48
2018-10-11T11:33:29.577Z,23.68
2018-10-11T11:36:04.423Z,23.97
2018-10-11T11:38:42.275Z,23.86
2018-10-11T11:41:17.793Z,23.91
2018-10-11T11:43:52.181Z,23.78
2018-10-11T11:46:26.817Z,23.72
2018-10-11T11:49:01.335Z,23.78
2018-10-11T11:51:35.859Z,23.96
2018-10-11T11:54:23.728Z,23.93
2018-10-11T11:59:57.324Z,24.19
2018-10-11T12:02:31.800Z,24.11
2018-10-11T12:05:07.162Z,24.29
2018-10-11T12:07:41.974Z,24.15
2018-10-11T12:10:16.601Z,24.23
2018-10-11T12:12:55.112Z,24.33
2018-10-11T12:15:30.470Z,24.61
2018-10-11T12:18:05.799Z,24.63
2018-10-11T12:20:41.447Z,24.74
2018-10-11T12:23:16.063Z,24.52
2018-10-11T12:25:50.664Z,24.35
2018-10-11T12:28:25.217Z,24.21
2018-10-11T12:30:59.818Z,24.53
2018-10-11T12:33:34.300Z,24.50
2018-10-11T12:36:08.866Z,24.51
2018-10-11T12:38:43.556Z,24.60
2018-10-11T12:41:18.248Z,23.99
2018-10-11T12:43:52.828Z,24.14
2018-10-11T12:46:27.477Z,24.16
2018-10-11T12:49:01.987Z,24.18
2018-10-11T12:51:36.492Z,24.19
2018-10-11T12:54:11.152Z,24.18
2018-10-11T12:56:45.982Z,23.97
2018-10-11T12:59:20.508Z,23.91
2018-10-11T13:01:55.028Z,24.14
2018-10-11T13:04:29.492Z,24.09
2018-10-11T13:07:03.987Z,24.13
2018-10-11T13:09:38.689Z,24.01
2018-10-11T13:12:13.263Z,24.15
2018-10-11T13:14:48.089Z,24.15
2018-10-11T13:17:22.588Z,24.00
2018-10-11T13:19:57.304Z,23.85
2018-10-11T13:22:31.828Z,24.05
2018-10-11T13:25:06.451Z,23.92
2018-10-11T13:27:41.521Z,23.75
2018-10-11T13:30:15.989Z,23.95
2018-10-11T13:32:50.521Z,23.81
2018-10-11T13:35:25.707Z,23.90
2018-10-11T13:38:00.224Z,23.72
2018-10-11T13:40:34.774Z,23.70
2018-10-11T13:43:09.477Z,23.47
2018-10-11T13:45:44.210Z,23.40
2018-10-11T13:48:18.753Z,23.39
2018-10-11T13:50:53.656Z,23.45
2018-10-11T13:53:28.214Z,23.51
2018-10-11T13:56:02.797Z,23.34
2018-10-11T13:58:37.539Z,23.47
2018-10-11T14:01:12.157Z,23.44
2018-10-11T14:03:47.157Z,23.51
2018-10-11T14:06:21.875Z,23.59
2018-10-11T14:08:56.496Z,23.57
2018-10-11T14:11:31.044Z,23.54
2018-10-11T14:14:05.870Z,23.54
2018-10-11T14:16:40.245Z,23.48
2018-10-11T14:19:14.786Z,23.40
2018-10-11T14:21:49.388Z,23.19
2018-10-11T14:24:24.069Z,23.01
2018-10-11T14:26:58.656Z,23.01
2018-10-11T14:29:33.312Z,23.12
2018-10-11T14:32:08.033Z,23.06
2018-10-11T14:34:43.194Z,23.00
2018-10-11T14:37:17.771Z,23.14
2018-10-11T14:39:52.156Z,23.26
2018-10-11T14:42:26.733Z,23.26
2018-10-11T14:45:01.398Z,23.37
2018-10-11T14:47:35.884Z,23.32
2018-10-11T14:50:10.472Z,23.20
2018-10-11T14:52:45.253Z,23.30
2018-10-11T14:55:19.905Z,23.38
2018-10-11T14:57:54.486Z,23.22
2018-10-11T15:00:29.058Z,23.35
2018-10-11T15:03:03.861Z,23.40
2018-10-11T15:05:38.357Z,23.57
2018-10-11T15:08:12.845Z,23.60
2018-10-11T15:10:47.530Z,23.64
2018-10-11T15:13:22.492Z,23.54
2018-10-11T15:15:57.136Z,23.51
2018-10-11T15:18:31.782Z,23.23
2018-10-11T15:21:06.603Z,23.21
2018-10-11T15:23:41.503Z,23.00
2018-10-11T15:26:16.408Z,22.88
2018-10-11T15:28:50.927Z,22.69
2018-10-11T15:31:25.621Z,22.72
2018-10-11T15:34:00.025Z,22.73
2018-10-11T15:36:34.555Z,22.64
2018-10-11T15:39:10.664Z,22.60
2018-10-11T15:41:45.205Z,22.73
2018-10-11T15:44:19.701Z,22.59
2018-10-11T15:46:54.389Z,22.67
2018-10-11T15:49:28.865Z,22.64
2018-10-11T15:52:03.572Z,22.67
2018-10-11T15:54:38.296Z,22.61
2018-10-11T15:57:12.865Z,22.61
2018-10-11T15:59:47.584Z,22.65
2018-10-11T16:02:22.074Z,22.65
2018-10-11T16:04:56.641Z,22.65
2018-10-11T16:07:31.248Z,22.57
2018-10-11T16:10:06.097Z,22.66
2018-10-11T16:12:40.637Z,22.60
2018-10-11T16:15:15.563Z,22.62
2018-10-11T16:17:50.240Z,22.63
2018-10-11T16:20:24.725Z,22.53
2018-10-11T16:22:59.410Z,22.50
2018-10-11T16:25:34.276Z,22.54
2018-10-11T16:28:08.752Z,22.37
2018-10-11T16:30:43.201Z,22.46
2018-10-11T16:33:17.765Z,22.48
2018-10-11T16:35:52.455Z,22.31
2018-10-11T16:38:27.093Z,22.35
2018-10-11T16:41:02.454Z,22.31
2018-10-11T16:43:37.069Z,22.22
2018-10-11T16:46:11.751Z,22.17
2018-10-11T16:48:46.232Z,22.07
2018-10-11T16:51:20.850Z,22.04
2018-10-11T16:53:55.500Z,21.88
2018-10-11T16:56:30.072Z,21.81
2018-10-11T16:59:04.717Z,21.75
2018-10-11T17:01:39.257Z,21.76
2018-10-11T17:04:13.906Z,21.54
2018-10-11T17:06:48.317Z,21.51
2018-10-11T17:09:22.860Z,21.40
2018-10-11T17:11:57.519Z,21.45
2018-10-11T17:14:32.177Z,21.30
2018-10-11T17:17:06.917Z,21.16
2018-10-11T17:19:41.565Z,21.18
2018-10-11T17:22:16.223Z,21.19
2018-10-11T17:24:51.473Z,21.13
2018-10-11T17:27:26.514Z,21.11
2018-10-11T17:30:00.953Z,21.18
2018-10-11T17:32:35.409Z,21.10
2018-10-11T17:35:10.258Z,20.92
2018-10-11T17:37:44.948Z,20.89
2018-10-11T17:40:19.542Z,20.92
2018-10-11T17:42:54.138Z,20.81
2018-10-11T17:45:28.887Z,20.82
2018-10-11T17:48:03.837Z,20.76
2018-10-11T17:50:38.409Z,20.72
2018-10-11T17:53:12.882Z,20.63
2018-10-11T17:55:47.817Z,20.63
2018-10-11T17:58:22.543Z,20.56
2018-10-11T18:00:57.910Z,20.59
2018-10-11T18:03:33.030Z,20.40
2018-10-11T18:06:08.213Z,20.39
2018-10-11T18:08:43.259Z,20.37
2018-10-11T18:11:18.973Z,20.42
2018-10-11T18:13:53.701Z,20.32
2018-10-11T18:16:28.489Z,20.10
2018-10-11T18:19:03.181Z,20.22
2018-10-11T18:21:37.768Z,20.21
2018-10-11T18:24:12.197Z,20.22
2018-10-11T18:26:50.501Z,20.08
2018-10-11T18:29:25.002Z,20.08
2018-10-11T18:31:59.813Z,19.97
2018-10-11T18:34:34.616Z,19.99
2018-10-11T18:37:09.214Z,19.94
2018-10-11T18:39:43.767Z,19.88
2018-10-11T18:42:18.764Z,19.88
2018-10-11T18:44:53.229Z,19.81
2018-10-11T18:47:27.738Z,19.78
2018-10-11T18:50:02.331Z,19.79
2018-10-11T18:52:37.929Z,19.83
2018-10-11T18:55:12.537Z,19.75
2018-10-11T18:57:47.275Z,19.66
2018-10-11T19:00:21.813Z,19.68
2018-10-11T19:02:56.396Z,19.64
2018-10-11T19:05:31.710Z,19.53
2018-10-11T19:08:06.517Z,19.46
2018-10-11T19:10:41.105Z,19.47
2018-10-11T19:13:15.798Z,19.52
2018-10-11T19:15:50.481Z,19.44
2018-10-11T19:18:25.100Z,19.33
2018-10-11T19:21:00.477Z,19.35
2018-10-11T19:23:35.494Z,19.30
2018-10-11T19:26:10.140Z,19.26
2018-10-11T19:28:44.739Z,19.22
2018-10-11T19:31:19.807Z,19.19
2018-10-11T19:33:54.533Z,19.24
2018-10-11T19:36:29.300Z,19.18
2018-10-11T19:39:04.899Z,19.17
2018-10-11T19:41:39.450Z,19.19
2018-10-11T19:44:14.039Z,19.03
2018-10-11T19:46:48.932Z,19.09
2018-10-11T19:49:23.621Z,19.05
2018-10-11T19:51:58.298Z,19.07
2018-10-11T19:54:32.842Z,19.09
2018-10-11T19:57:07.541Z,19.17
2018-10-11T19:59:42.236Z,19.31
2018-10-11T20:02:16.851Z,19.23
2018-10-11T20:04:51.385Z,19.28
2018-10-11T20:07:25.829Z,19.37
2018-10-11T20:10:00.498Z,19.38
2018-10-11T20:12:35.152Z,19.36
2018-10-11T20:15:10.057Z,19.40
2018-10-11T20:17:44.625Z,19.40
2018-10-11T20:20:19.068Z,19.37
2018-10-11T20:22:53.556Z,19.39
2018-10-11T20:25:28.149Z,19.32
2018-10-11T20:28:02.602Z,19.36
2018-10-11T20:30:37.093Z,19.32
2018-10-11T20:33:11.805Z,19.30
2018-10-11T20:35:46.458Z,19.23
2018-10-11T20:38:21.000Z,19.14
2018-10-11T20:40:55.567Z,19.13
2018-10-11T20:43:30.210Z,19.18
2018-10-11T20:46:04.763Z,19.01
2018-10-11T20:48:39.814Z,19.15
2018-10-11T20:51:14.541Z,19.05
2018-10-11T20:53:49.087Z,19.10
2018-10-11T20:56:23.810Z,19.03
2018-10-11T20:58:58.821Z,18.92
2018-10-11T21:01:33.401Z,18.87
2018-10-11T21:04:07.982Z,18.88
2018-10-11T21:06:42.749Z,18.90
2018-10-11T21:09:17.268Z,18.96
2018-10-11T21:11:51.867Z,18.86
2018-10-11T21:14:26.384Z,18.81
2018-10-11T21:17:01.334Z,18.84
2018-10-11T21:19:36.050Z,18.86
2018-10-11T21:22:10.560Z,18.80
2018-10-11T21:24:45.073Z,18.71
2018-10-11T21:27:19.909Z,18.68
2018-10-11T21:29:54.396Z,18.62
2018-10-11T21:32:29.034Z,18.70
2018-10-11T21:35:03.566Z,18.79
2018-10-11T21:37:38.331Z,18.71
2018-10-11T21:40:12.869Z,18.64
2018-10-11T21:42:47.441Z,18.63
2018-10-11T21:45:22.237Z,18.62
2018-10-11T21:50:59.596Z,18.57
2018-10-11T21:53:34.146Z,18.60
2018-10-11T21:56:08.774Z,18.59
2018-10-11T21:58:43.437Z,18.55
2018-10-11T22:01:21.813Z,18.54
2018-10-11T22:03:56.477Z,18.45
2018-10-11T22:06:31.027Z,18.53
2018-10-11T22:09:06.685Z,18.48
2018-10-11T22:11:56.340Z,18.53
2018-10-11T22:14:31.158Z,18.52
2018-10-11T22:20:05.513Z,18.59
2018-10-11T22:25:39.145Z,18.48
2018-10-11T22:28:13.810Z,18.45
2018-10-11T22:30:48.512Z,18.47
2018-10-11T22:33:23.590Z,18.42
2018-10-11T22:35:58.362Z,18.47
2018-10-11T22:38:32.949Z,18.48
2018-10-11T22:41:07.767Z,18.54
2018-10-11T22:43:42.741Z,18.46
2018-10-11T22:46:17.610Z,18.44
2018-10-11T22:48:52.376Z,18.38
2018-10-11T22:51:26.919Z,18.38
2018-10-11T22:54:01.636Z,18.43
2018-10-11T22:56:36.221Z,18.48
2018-10-11T22:59:10.716Z,18.45
2018-10-11T23:01:45.459Z,18.50
2018-10-11T23:04:19.871Z,18.49
2018-10-11T23:06:54.337Z,18.50
2018-10-11T23:09:28.880Z,18.55
2018-10-11T23:12:03.567Z,18.49
2018-10-11T23:14:38.337Z,18.59
2018-10-11T23:17:13.145Z,18.56
2018-10-11T23:19:48.044Z,18.56
2018-10-11T23:22:22.725Z,18.51
2018-10-11T23:24:57.357Z,18.52
2018-10-11T23:27:32.030Z,18.53
2018-10-11T23:30:06.853Z,18.51
2018-10-11T23:32:42.248Z,18.49
2018-10-11T23:35:16.781Z,18.44
2018-10-11T23:37:51.191Z,18.43
2018-10-11T23:40:25.862Z,18.45
2018-10-11T23:43:00.393Z,18.45
2018-10-11T23:45:35.117Z,18.44
2018-10-11T23:48:09.764Z,18.46
2018-10-11T23:50:44.425Z,18.51
2018-10-11T23:53:18.921Z,18.53
2018-10-11T23:55:53.421Z,18.52
2018-10-11T23:58:27.921Z,18.59
